sensor_id;sensor_type;location;lat;lon;timestamp;P1;durP1;ratioP1;P2;durP2;ratioP2
9496;SDS011;4786;51.270;4.456;2023-01-09T00:01:28;3.27;;;2.00;;
9496;SDS011;4786;51.270;4.456;2023-01-09T00:03:56;3.63;;;2.00;;
9496;SDS011;4786;51.270;4.456;2023-01-09T00:06:21;2.50;;;1.93;;
9496;SDS011;4786;51.270;4.456;2023-01-09T00:08:47;3.17;;;1.93;;
9496;SDS011;4786;51.270;4.456;2023-01-09T00:11:13;2.53;;;1.70;;
9496;SDS011;4786;51.270;4.456;2023-01-09T00:13:39;3.20;;;1.60;;
9496;SDS011;4786;51.270;4.456;2023-01-09T00:16:05;5.57;;;2.10;;
9496;SDS011;4786;51.270;4.456;2023-01-09T00:18:33;6.83;;;1.87;;
9496;SDS011;4786;51.270;4.456;2023-01-09T00:21:00;2.17;;;1.53;;
9496;SDS011;4786;51.270;4.456;2023-01-09T00:23:28;3.80;;;1.80;;
9496;SDS011;4786;51.270;4.456;2023-01-09T00:26:04;2.57;;;1.90;;
9496;SDS011;4786;51.270;4.456;2023-01-09T00:28:32;3.20;;;1.83;;
9496;SDS011;4786;51.270;4.456;2023-01-09T00:30:59;2.37;;;1.97;;
9496;SDS011;4786;51.270;4.456;2023-01-09T00:33:30;6.53;;;2.03;;
9496;SDS011;4786;51.270;4.456;2023-01-09T00:35:58;4.17;;;2.07;;
9496;SDS011;4786;51.270;4.456;2023-01-09T00:38:25;2.90;;;1.90;;
9496;SDS011;4786;51.270;4.456;2023-01-09T00:40:51;5.80;;;2.43;;
9496;SDS011;4786;51.270;4.456;2023-01-09T00:43:18;3.53;;;1.57;;
9496;SDS011;4786;51.270;4.456;2023-01-09T00:45:47;2.63;;;2.07;;
9496;SDS011;4786;51.270;4.456;2023-01-09T00:48:15;4.57;;;2.00;;
9496;SDS011;4786;51.270;4.456;2023-01-09T00:50:50;3.87;;;1.90;;
9496;SDS011;4786;51.270;4.456;2023-01-09T00:53:22;4.07;;;2.10;;
9496;SDS011;4786;51.270;4.456;2023-01-09T00:55:50;4.20;;;2.00;;
9496;SDS011;4786;51.270;4.456;2023-01-09T00:58:17;5.07;;;1.97;;
9496;SDS011;4786;51.270;4.456;2023-01-09T01:00:43;3.83;;;1.80;;
9496;SDS011;4786;51.270;4.456;2023-01-09T01:03:09;3.33;;;1.63;;
9496;SDS011;4786;51.270;4.456;2023-01-09T01:05:35;4.10;;;1.90;;
9496;SDS011;4786;51.270;4.456;2023-01-09T01:08:20;3.90;;;2.20;;
9496;SDS011;4786;51.270;4.456;2023-01-09T01:10:46;3.53;;;1.97;;
9496;SDS011;4786;51.270;4.456;2023-01-09T01:13:13;5.43;;;2.30;;
9496;SDS011;4786;51.270;4.456;2023-01-09T01:15:40;4.43;;;1.83;;
9496;SDS011;4786;51.270;4.456;2023-01-09T01:18:08;8.03;;;2.50;;
9496;SDS011;4786;51.270;4.456;2023-01-09T01:20:35;4.43;;;2.53;;
9496;SDS011;4786;51.270;4.456;2023-01-09T01:23:04;4.07;;;2.17;;
9496;SDS011;4786;51.270;4.456;2023-01-09T01:25:30;4.27;;;2.20;;
9496;SDS011;4786;51.270;4.456;2023-01-09T01:27:55;3.77;;;2.00;;
9496;SDS011;4786;51.270;4.456;2023-01-09T01:30:22;4.63;;;2.10;;
9496;SDS011;4786;51.270;4.456;2023-01-09T01:32:48;5.70;;;2.33;;
9496;SDS011;4786;51.270;4.456;2023-01-09T01:35:14;3.50;;;2.13;;
9496;SDS011;4786;51.270;4.456;2023-01-09T01:37:40;5.70;;;2.20;;
9496;SDS011;4786;51.270;4.456;2023-01-09T01:40:07;4.27;;;2.00;;
9496;SDS011;4786;51.270;4.456;2023-01-09T01:42:34;4.20;;;2.10;;
9496;SDS011;4786;51.270;4.456;2023-01-09T01:45:02;2.73;;;1.93;;
9496;SDS011;4786;51.270;4.456;2023-01-09T01:47:41;5.90;;;2.10;;
9496;SDS011;4786;51.270;4.456;2023-01-09T01:53:16;4.43;;;1.87;;
9496;SDS011;4786;51.270;4.456;2023-01-09T01:59:32;7.47;;;2.00;;
9496;SDS011;4786;51.270;4.456;2023-01-09T02:01:41;5.57;;;2.03;;
9496;SDS011;4786;51.270;4.456;2023-01-09T02:04:13;7.07;;;2.00;;
9496;SDS011;4786;51.270;4.456;2023-01-09T02:06:39;4.27;;;2.20;;
9496;SDS011;4786;51.270;4.456;2023-01-09T02:09:06;4.67;;;1.70;;
9496;SDS011;4786;51.270;4.456;2023-01-09T02:11:33;6.30;;;2.33;;
9496;SDS011;4786;51.270;4.456;2023-01-09T02:13:58;4.90;;;1.77;;
9496;SDS011;4786;51.270;4.456;2023-01-09T02:22:35;2.80;;;1.70;;
9496;SDS011;4786;51.270;4.456;2023-01-09T02:38:21;4.57;;;1.80;;
9496;SDS011;4786;51.270;4.456;2023-01-09T02:43:40;6.43;;;1.90;;
9496;SDS011;4786;51.270;4.456;2023-01-09T02:46:17;5.63;;;1.80;;
9496;SDS011;4786;51.270;4.456;2023-01-09T02:48:46;5.73;;;2.03;;
9496;SDS011;4786;51.270;4.456;2023-01-09T02:51:34;3.37;;;2.00;;
9496;SDS011;4786;51.270;4.456;2023-01-09T02:54:19;2.70;;;1.80;;
9496;SDS011;4786;51.270;4.456;2023-01-09T02:59:59;5.67;;;2.10;;
9496;SDS011;4786;51.270;4.456;2023-01-09T03:02:32;5.17;;;2.10;;
9496;SDS011;4786;51.270;4.456;2023-01-09T03:05:07;5.17;;;1.60;;
9496;SDS011;4786;51.270;4.456;2023-01-09T03:08:04;4.20;;;1.60;;
9496;SDS011;4786;51.270;4.456;2023-01-09T03:13:04;6.33;;;2.20;;
9496;SDS011;4786;51.270;4.456;2023-01-09T03:15:35;4.87;;;1.63;;
9496;SDS011;4786;51.270;4.456;2023-01-09T03:18:04;2.30;;;1.60;;
9496;SDS011;4786;51.270;4.456;2023-01-09T03:20:33;5.13;;;1.70;;
9496;SDS011;4786;51.270;4.456;2023-01-09T03:23:01;5.17;;;1.80;;
9496;SDS011;4786;51.270;4.456;2023-01-09T03:25:29;6.83;;;2.00;;
9496;SDS011;4786;51.270;4.456;2023-01-09T03:28:38;5.80;;;1.80;;
9496;SDS011;4786;51.270;4.456;2023-01-09T03:30:53;4.03;;;1.60;;
9496;SDS011;4786;51.270;4.456;2023-01-09T03:33:20;4.37;;;1.67;;
9496;SDS011;4786;51.270;4.456;2023-01-09T03:35:46;4.00;;;1.87;;
9496;SDS011;4786;51.270;4.456;2023-01-09T03:38:12;5.53;;;2.03;;
9496;SDS011;4786;51.270;4.456;2023-01-09T03:40:38;5.67;;;1.90;;
9496;SDS011;4786;51.270;4.456;2023-01-09T03:43:05;6.07;;;1.80;;
9496;SDS011;4786;51.270;4.456;2023-01-09T03:45:30;4.10;;;1.70;;
9496;SDS011;4786;51.270;4.456;2023-01-09T03:47:56;4.67;;;2.00;;
9496;SDS011;4786;51.270;4.456;2023-01-09T03:50:23;6.67;;;2.20;;
9496;SDS011;4786;51.270;4.456;2023-01-09T03:52:49;5.87;;;1.63;;
9496;SDS011;4786;51.270;4.456;2023-01-09T03:55:15;6.30;;;2.23;;
9496;SDS011;4786;51.270;4.456;2023-01-09T03:57:41;4.07;;;1.60;;
9496;SDS011;4786;51.270;4.456;2023-01-09T04:00:07;5.40;;;2.00;;
9496;SDS011;4786;51.270;4.456;2023-01-09T04:02:34;7.47;;;1.70;;
9496;SDS011;4786;51.270;4.456;2023-01-09T04:05:00;2.50;;;1.50;;
9496;SDS011;4786;51.270;4.456;2023-01-09T04:07:25;7.40;;;2.00;;
9496;SDS011;4786;51.270;4.456;2023-01-09T04:09:51;10.90;;;2.20;;
9496;SDS011;4786;51.270;4.456;2023-01-09T04:12:17;4.93;;;2.00;;
9496;SDS011;4786;51.270;4.456;2023-01-09T04:14:43;4.40;;;1.80;;
9496;SDS011;4786;51.270;4.456;2023-01-09T04:17:09;8.17;;;2.27;;
9496;SDS011;4786;51.270;4.456;2023-01-09T04:19:36;9.73;;;2.40;;
9496;SDS011;4786;51.270;4.456;2023-01-09T04:22:02;3.43;;;1.87;;
9496;SDS011;4786;51.270;4.456;2023-01-09T04:24:27;8.80;;;2.20;;
9496;SDS011;4786;51.270;4.456;2023-01-09T04:26:54;7.07;;;1.93;;
9496;SDS011;4786;51.270;4.456;2023-01-09T04:29:20;5.40;;;2.00;;
9496;SDS011;4786;51.270;4.456;2023-01-09T04:31:46;5.33;;;1.97;;
9496;SDS011;4786;51.270;4.456;2023-01-09T04:34:12;5.67;;;1.93;;
9496;SDS011;4786;51.270;4.456;2023-01-09T04:36:38;7.17;;;2.10;;
9496;SDS011;4786;51.270;4.456;2023-01-09T04:39:04;4.13;;;1.90;;
9496;SDS011;4786;51.270;4.456;2023-01-09T04:41:30;4.97;;;1.90;;
9496;SDS011;4786;51.270;4.456;2023-01-09T04:44:15;7.13;;;2.10;;
9496;SDS011;4786;51.270;4.456;2023-01-09T04:46:50;6.33;;;2.03;;
9496;SDS011;4786;51.270;4.456;2023-01-09T04:49:16;4.97;;;2.17;;
9496;SDS011;4786;51.270;4.456;2023-01-09T04:51:42;6.27;;;2.37;;
9496;SDS011;4786;51.270;4.456;2023-01-09T04:54:09;5.97;;;1.80;;
9496;SDS011;4786;51.270;4.456;2023-01-09T04:56:35;6.20;;;2.10;;
9496;SDS011;4786;51.270;4.456;2023-01-09T04:59:01;7.30;;;2.23;;
9496;SDS011;4786;51.270;4.456;2023-01-09T05:01:28;6.73;;;2.20;;
9496;SDS011;4786;51.270;4.456;2023-01-09T05:03:54;5.73;;;1.80;;
9496;SDS011;4786;51.270;4.456;2023-01-09T05:06:20;7.90;;;2.23;;
9496;SDS011;4786;51.270;4.456;2023-01-09T05:08:46;7.73;;;2.23;;
9496;SDS011;4786;51.270;4.456;2023-01-09T05:11:12;5.87;;;2.30;;
9496;SDS011;4786;51.270;4.456;2023-01-09T05:13:38;11.50;;;2.77;;
9496;SDS011;4786;51.270;4.456;2023-01-09T05:16:04;10.63;;;2.83;;
9496;SDS011;4786;51.270;4.456;2023-01-09T05:18:31;6.20;;;2.10;;
9496;SDS011;4786;51.270;4.456;2023-01-09T05:20:57;6.93;;;2.57;;
9496;SDS011;4786;51.270;4.456;2023-01-09T05:23:23;9.70;;;2.43;;
9496;SDS011;4786;51.270;4.456;2023-01-09T05:25:49;12.00;;;2.37;;
9496;SDS011;4786;51.270;4.456;2023-01-09T05:28:15;7.23;;;2.37;;
9496;SDS011;4786;51.270;4.456;2023-01-09T05:30:40;10.00;;;2.77;;
9496;SDS011;4786;51.270;4.456;2023-01-09T05:33:06;8.00;;;2.63;;
9496;SDS011;4786;51.270;4.456;2023-01-09T05:35:32;8.63;;;2.33;;
9496;SDS011;4786;51.270;4.456;2023-01-09T05:37:58;8.07;;;2.60;;
9496;SDS011;4786;51.270;4.456;2023-01-09T05:40:24;6.10;;;2.27;;
9496;SDS011;4786;51.270;4.456;2023-01-09T05:42:50;6.33;;;2.03;;
9496;SDS011;4786;51.270;4.456;2023-01-09T05:45:16;10.10;;;2.53;;
9496;SDS011;4786;51.270;4.456;2023-01-09T05:47:45;7.13;;;2.33;;
9496;SDS011;4786;51.270;4.456;2023-01-09T05:50:11;6.13;;;1.97;;
9496;SDS011;4786;51.270;4.456;2023-01-09T05:52:38;5.47;;;2.17;;
9496;SDS011;4786;51.270;4.456;2023-01-09T05:55:05;7.03;;;2.80;;
9496;SDS011;4786;51.270;4.456;2023-01-09T05:57:31;6.93;;;2.43;;
9496;SDS011;4786;51.270;4.456;2023-01-09T05:59:57;8.90;;;2.33;;
9496;SDS011;4786;51.270;4.456;2023-01-09T06:02:23;9.93;;;2.83;;
9496;SDS011;4786;51.270;4.456;2023-01-09T06:04:49;7.57;;;2.47;;
9496;SDS011;4786;51.270;4.456;2023-01-09T06:07:15;6.77;;;2.33;;
9496;SDS011;4786;51.270;4.456;2023-01-09T06:09:41;8.20;;;3.00;;
9496;SDS011;4786;51.270;4.456;2023-01-09T06:12:07;7.87;;;2.10;;
9496;SDS011;4786;51.270;4.456;2023-01-09T06:14:33;10.40;;;3.17;;
9496;SDS011;4786;51.270;4.456;2023-01-09T06:17:01;5.73;;;2.30;;
9496;SDS011;4786;51.270;4.456;2023-01-09T06:19:27;8.00;;;2.23;;
9496;SDS011;4786;51.270;4.456;2023-01-09T06:21:53;8.77;;;2.40;;
9496;SDS011;4786;51.270;4.456;2023-01-09T06:24:19;6.63;;;2.20;;
9496;SDS011;4786;51.270;4.456;2023-01-09T06:26:45;6.30;;;2.47;;
9496;SDS011;4786;51.270;4.456;2023-01-09T06:29:11;7.10;;;2.27;;
9496;SDS011;4786;51.270;4.456;2023-01-09T06:31:37;10.00;;;2.77;;
9496;SDS011;4786;51.270;4.456;2023-01-09T06:34:03;4.03;;;2.33;;
9496;SDS011;4786;51.270;4.456;2023-01-09T06:36:29;4.90;;;2.43;;
9496;SDS011;4786;51.270;4.456;2023-01-09T06:38:54;7.17;;;2.10;;
9496;SDS011;4786;51.270;4.456;2023-01-09T06:41:21;9.47;;;2.70;;
9496;SDS011;4786;51.270;4.456;2023-01-09T06:43:46;7.30;;;3.00;;
9496;SDS011;4786;51.270;4.456;2023-01-09T06:46:12;7.67;;;2.57;;
9496;SDS011;4786;51.270;4.456;2023-01-09T06:48:38;10.10;;;2.83;;
9496;SDS011;4786;51.270;4.456;2023-01-09T06:51:04;8.83;;;2.47;;
9496;SDS011;4786;51.270;4.456;2023-01-09T06:53:30;8.53;;;2.63;;
9496;SDS011;4786;51.270;4.456;2023-01-09T06:55:56;7.63;;;2.53;;
9496;SDS011;4786;51.270;4.456;2023-01-09T06:58:23;9.43;;;2.50;;
9496;SDS011;4786;51.270;4.456;2023-01-09T07:00:49;8.13;;;2.30;;
9496;SDS011;4786;51.270;4.456;2023-01-09T07:03:14;5.03;;;2.17;;
9496;SDS011;4786;51.270;4.456;2023-01-09T07:05:45;7.47;;;2.20;;
9496;SDS011;4786;51.270;4.456;2023-01-09T07:08:11;6.03;;;2.27;;
9496;SDS011;4786;51.270;4.456;2023-01-09T07:10:38;6.80;;;2.10;;
9496;SDS011;4786;51.270;4.456;2023-01-09T07:13:05;5.83;;;2.47;;
9496;SDS011;4786;51.270;4.456;2023-01-09T07:15:31;6.27;;;2.10;;
9496;SDS011;4786;51.270;4.456;2023-01-09T07:17:56;8.27;;;2.20;;
9496;SDS011;4786;51.270;4.456;2023-01-09T07:20:22;7.00;;;2.37;;
9496;SDS011;4786;51.270;4.456;2023-01-09T07:22:48;3.43;;;1.93;;
9496;SDS011;4786;51.270;4.456;2023-01-09T07:25:14;7.73;;;2.30;;
9496;SDS011;4786;51.270;4.456;2023-01-09T07:27:39;7.40;;;2.17;;
9496;SDS011;4786;51.270;4.456;2023-01-09T07:30:06;8.33;;;2.30;;
9496;SDS011;4786;51.270;4.456;2023-01-09T07:32:32;5.07;;;1.97;;
9496;SDS011;4786;51.270;4.456;2023-01-09T07:34:58;7.63;;;2.20;;
9496;SDS011;4786;51.270;4.456;2023-01-09T07:37:24;10.53;;;2.83;;
9496;SDS011;4786;51.270;4.456;2023-01-09T07:39:50;6.57;;;2.50;;
9496;SDS011;4786;51.270;4.456;2023-01-09T07:42:16;8.37;;;2.60;;
9496;SDS011;4786;51.270;4.456;2023-01-09T07:44:42;7.23;;;2.30;;
9496;SDS011;4786;51.270;4.456;2023-01-09T07:47:08;5.93;;;2.23;;
9496;SDS011;4786;51.270;4.456;2023-01-09T07:49:34;6.60;;;2.73;;
9496;SDS011;4786;51.270;4.456;2023-01-09T07:51:59;7.33;;;2.63;;
9496;SDS011;4786;51.270;4.456;2023-01-09T07:54:25;6.53;;;2.33;;
9496;SDS011;4786;51.270;4.456;2023-01-09T07:56:51;10.33;;;2.87;;
9496;SDS011;4786;51.270;4.456;2023-01-09T07:59:17;6.97;;;2.43;;
9496;SDS011;4786;51.270;4.456;2023-01-09T08:01:43;6.73;;;2.17;;
9496;SDS011;4786;51.270;4.456;2023-01-09T08:04:09;11.77;;;2.60;;
9496;SDS011;4786;51.270;4.456;2023-01-09T08:06:35;7.10;;;2.27;;
9496;SDS011;4786;51.270;4.456;2023-01-09T08:09:01;6.13;;;2.53;;
9496;SDS011;4786;51.270;4.456;2023-01-09T08:11:27;8.00;;;2.63;;
9496;SDS011;4786;51.270;4.456;2023-01-09T08:13:53;8.47;;;2.70;;
9496;SDS011;4786;51.270;4.456;2023-01-09T08:16:20;8.50;;;2.57;;
9496;SDS011;4786;51.270;4.456;2023-01-09T08:18:46;11.43;;;2.90;;
9496;SDS011;4786;51.270;4.456;2023-01-09T08:21:12;8.50;;;2.87;;
9496;SDS011;4786;51.270;4.456;2023-01-09T08:23:38;8.73;;;2.80;;
9496;SDS011;4786;51.270;4.456;2023-01-09T08:26:04;7.63;;;2.77;;
9496;SDS011;4786;51.270;4.456;2023-01-09T08:28:30;7.60;;;2.90;;
9496;SDS011;4786;51.270;4.456;2023-01-09T08:30:57;12.70;;;2.97;;
9496;SDS011;4786;51.270;4.456;2023-01-09T08:33:23;10.23;;;2.87;;
9496;SDS011;4786;51.270;4.456;2023-01-09T08:35:49;6.07;;;2.50;;
9496;SDS011;4786;51.270;4.456;2023-01-09T08:38:15;10.53;;;3.27;;
9496;SDS011;4786;51.270;4.456;2023-01-09T08:40:41;9.83;;;2.83;;
9496;SDS011;4786;51.270;4.456;2023-01-09T08:43:07;6.90;;;2.67;;
9496;SDS011;4786;51.270;4.456;2023-01-09T08:45:54;8.60;;;3.03;;
9496;SDS011;4786;51.270;4.456;2023-01-09T08:48:39;12.77;;;3.17;;
9496;SDS011;4786;51.270;4.456;2023-01-09T08:51:04;11.70;;;3.30;;
9496;SDS011;4786;51.270;4.456;2023-01-09T08:53:30;8.20;;;3.07;;
9496;SDS011;4786;51.270;4.456;2023-01-09T08:55:57;14.97;;;3.30;;
9496;SDS011;4786;51.270;4.456;2023-01-09T08:58:23;11.83;;;3.17;;
9496;SDS011;4786;51.270;4.456;2023-01-09T09:00:49;13.03;;;3.17;;
9496;SDS011;4786;51.270;4.456;2023-01-09T09:03:15;7.53;;;3.03;;
9496;SDS011;4786;51.270;4.456;2023-01-09T09:05:41;9.67;;;3.90;;
9496;SDS011;4786;51.270;4.456;2023-01-09T09:08:07;10.63;;;3.97;;
9496;SDS011;4786;51.270;4.456;2023-01-09T09:10:33;7.63;;;3.13;;
9496;SDS011;4786;51.270;4.456;2023-01-09T09:13:00;11.43;;;3.73;;
9496;SDS011;4786;51.270;4.456;2023-01-09T09:15:27;8.87;;;2.97;;
9496;SDS011;4786;51.270;4.456;2023-01-09T09:17:54;6.70;;;3.00;;
9496;SDS011;4786;51.270;4.456;2023-01-09T09:20:22;10.10;;;3.20;;
9496;SDS011;4786;51.270;4.456;2023-01-09T09:22:50;9.70;;;3.20;;
9496;SDS011;4786;51.270;4.456;2023-01-09T09:25:21;7.93;;;3.30;;
9496;SDS011;4786;51.270;4.456;2023-01-09T09:27:47;12.40;;;3.30;;
9496;SDS011;4786;51.270;4.456;2023-01-09T09:30:14;10.53;;;2.97;;
9496;SDS011;4786;51.270;4.456;2023-01-09T09:32:42;15.43;;;3.20;;
9496;SDS011;4786;51.270;4.456;2023-01-09T09:35:08;10.53;;;3.17;;
9496;SDS011;4786;51.270;4.456;2023-01-09T09:37:35;9.10;;;3.37;;
9496;SDS011;4786;51.270;4.456;2023-01-09T09:40:02;8.60;;;2.63;;
9496;SDS011;4786;51.270;4.456;2023-01-09T09:51:20;7.87;;;2.93;;
9496;SDS011;4786;51.270;4.456;2023-01-09T09:53:54;9.47;;;3.33;;
9496;SDS011;4786;51.270;4.456;2023-01-09T09:56:24;9.47;;;3.20;;
9496;SDS011;4786;51.270;4.456;2023-01-09T09:58:56;8.37;;;3.10;;
9496;SDS011;4786;51.270;4.456;2023-01-09T10:04:25;9.90;;;3.60;;
9496;SDS011;4786;51.270;4.456;2023-01-09T10:06:55;6.83;;;2.80;;
9496;SDS011;4786;51.270;4.456;2023-01-09T10:09:35;11.57;;;3.47;;
9496;SDS011;4786;51.270;4.456;2023-01-09T10:12:34;6.77;;;3.10;;
9496;SDS011;4786;51.270;4.456;2023-01-09T10:15:18;7.63;;;2.80;;
9496;SDS011;4786;51.270;4.456;2023-01-09T10:18:08;11.63;;;3.27;;
9496;SDS011;4786;51.270;4.456;2023-01-09T10:23:26;6.00;;;2.93;;
9496;SDS011;4786;51.270;4.456;2023-01-09T10:31:26;8.37;;;3.70;;
9496;SDS011;4786;51.270;4.456;2023-01-09T10:37:03;11.73;;;3.30;;
9496;SDS011;4786;51.270;4.456;2023-01-09T10:42:06;9.70;;;3.30;;
9496;SDS011;4786;51.270;4.456;2023-01-09T10:44:35;12.97;;;3.43;;
9496;SDS011;4786;51.270;4.456;2023-01-09T10:47:19;10.07;;;3.30;;
9496;SDS011;4786;51.270;4.456;2023-01-09T10:50:08;8.43;;;3.30;;
9496;SDS011;4786;51.270;4.456;2023-01-09T10:52:40;6.23;;;3.13;;
9496;SDS011;4786;51.270;4.456;2023-01-09T10:57:58;11.10;;;3.17;;
9496;SDS011;4786;51.270;4.456;2023-01-09T11:00:33;9.53;;;2.77;;
9496;SDS011;4786;51.270;4.456;2023-01-09T11:02:59;5.87;;;2.90;;
9496;SDS011;4786;51.270;4.456;2023-01-09T11:05:26;6.73;;;3.33;;
9496;SDS011;4786;51.270;4.456;2023-01-09T11:08:00;6.17;;;2.70;;
9496;SDS011;4786;51.270;4.456;2023-01-09T11:10:47;6.93;;;2.93;;
9496;SDS011;4786;51.270;4.456;2023-01-09T11:13:19;5.23;;;2.97;;
9496;SDS011;4786;51.270;4.456;2023-01-09T11:18:34;6.10;;;3.50;;
9496;SDS011;4786;51.270;4.456;2023-01-09T11:21:37;10.03;;;3.70;;
9496;SDS011;4786;51.270;4.456;2023-01-09T11:24:32;7.50;;;3.57;;
9496;SDS011;4786;51.270;4.456;2023-01-09T11:27:13;10.20;;;3.80;;
9496;SDS011;4786;51.270;4.456;2023-01-09T11:32:33;8.30;;;3.30;;
9496;SDS011;4786;51.270;4.456;2023-01-09T11:35:00;12.67;;;4.13;;
9496;SDS011;4786;51.270;4.456;2023-01-09T11:37:29;7.63;;;3.23;;
9496;SDS011;4786;51.270;4.456;2023-01-09T11:39:57;7.10;;;3.23;;
9496;SDS011;4786;51.270;4.456;2023-01-09T11:42:25;10.43;;;4.00;;
9496;SDS011;4786;51.270;4.456;2023-01-09T11:45:20;8.77;;;3.73;;
9496;SDS011;4786;51.270;4.456;2023-01-09T11:47:52;9.70;;;4.00;;
9496;SDS011;4786;51.270;4.456;2023-01-09T11:50:19;9.67;;;3.70;;
9496;SDS011;4786;51.270;4.456;2023-01-09T11:55:31;12.27;;;4.27;;
9496;SDS011;4786;51.270;4.456;2023-01-09T11:57:57;9.30;;;4.33;;
9496;SDS011;4786;51.270;4.456;2023-01-09T12:00:24;11.83;;;4.63;;
9496;SDS011;4786;51.270;4.456;2023-01-09T12:02:56;8.97;;;3.97;;
9496;SDS011;4786;51.270;4.456;2023-01-09T12:32:36;8.33;;;4.40;;
9496;SDS011;4786;51.270;4.456;2023-01-09T12:38:39;10.73;;;4.70;;
9496;SDS011;4786;51.270;4.456;2023-01-09T12:46:36;13.93;;;4.87;;
9496;SDS011;4786;51.270;4.456;2023-01-09T12:49:20;14.77;;;5.13;;
9496;SDS011;4786;51.270;4.456;2023-01-09T12:52:05;12.33;;;5.17;;
9496;SDS011;4786;51.270;4.456;2023-01-09T12:57:54;13.97;;;4.90;;
9496;SDS011;4786;51.270;4.456;2023-01-09T13:00:23;7.47;;;4.17;;
9496;SDS011;4786;51.270;4.456;2023-01-09T13:05:30;13.17;;;5.20;;
9496;SDS011;4786;51.270;4.456;2023-01-09T13:08:04;8.93;;;4.57;;
9496;SDS011;4786;51.270;4.456;2023-01-09T13:10:38;10.93;;;5.37;;
9496;SDS011;4786;51.270;4.456;2023-01-09T13:13:12;12.43;;;4.70;;
9496;SDS011;4786;51.270;4.456;2023-01-09T13:16:16;11.80;;;4.97;;
9496;SDS011;4786;51.270;4.456;2023-01-09T13:18:48;12.50;;;5.00;;
9496;SDS011;4786;51.270;4.456;2023-01-09T13:21:21;10.37;;;5.67;;
9496;SDS011;4786;51.270;4.456;2023-01-09T13:24:03;16.33;;;5.63;;
9496;SDS011;4786;51.270;4.456;2023-01-09T13:26:46;12.33;;;5.23;;
9496;SDS011;4786;51.270;4.456;2023-01-09T13:29:27;11.90;;;4.70;;
9496;SDS011;4786;51.270;4.456;2023-01-09T13:32:10;13.53;;;4.63;;
9496;SDS011;4786;51.270;4.456;2023-01-09T13:34:49;10.20;;;4.23;;
9496;SDS011;4786;51.270;4.456;2023-01-09T13:37:21;13.67;;;4.93;;
9496;SDS011;4786;51.270;4.456;2023-01-09T13:39:59;13.37;;;5.00;;
9496;SDS011;4786;51.270;4.456;2023-01-09T13:42:25;9.73;;;4.47;;
9496;SDS011;4786;51.270;4.456;2023-01-09T13:47:41;10.50;;;4.37;;
9496;SDS011;4786;51.270;4.456;2023-01-09T13:52:42;13.20;;;4.73;;
9496;SDS011;4786;51.270;4.456;2023-01-09T14:03:12;13.33;;;4.80;;
9496;SDS011;4786;51.270;4.456;2023-01-09T14:08:18;14.83;;;4.47;;
9496;SDS011;4786;51.270;4.456;2023-01-09T14:10:47;12.07;;;4.00;;
9496;SDS011;4786;51.270;4.456;2023-01-09T14:13:25;12.90;;;4.10;;
9496;SDS011;4786;51.270;4.456;2023-01-09T14:21:22;9.50;;;3.93;;
9496;SDS011;4786;51.270;4.456;2023-01-09T14:23:58;14.97;;;4.33;;
9496;SDS011;4786;51.270;4.456;2023-01-09T14:26:41;8.43;;;3.30;;
9496;SDS011;4786;51.270;4.456;2023-01-09T14:35:33;11.03;;;3.00;;
9496;SDS011;4786;51.270;4.456;2023-01-09T14:37:40;8.30;;;2.57;;
9496;SDS011;4786;51.270;4.456;2023-01-09T14:40:15;7.70;;;2.30;;
9496;SDS011;4786;51.270;4.456;2023-01-09T14:42:49;5.83;;;2.00;;
9496;SDS011;4786;51.270;4.456;2023-01-09T14:45:18;6.57;;;1.90;;
9496;SDS011;4786;51.270;4.456;2023-01-09T14:47:51;7.20;;;2.57;;
9496;SDS011;4786;51.270;4.456;2023-01-09T14:50:29;6.47;;;1.87;;
9496;SDS011;4786;51.270;4.456;2023-01-09T14:53:09;11.00;;;2.30;;
9496;SDS011;4786;51.270;4.456;2023-01-09T15:00:48;5.57;;;2.10;;
9496;SDS011;4786;51.270;4.456;2023-01-09T15:03:22;7.90;;;2.37;;
9496;SDS011;4786;51.270;4.456;2023-01-09T15:05:52;8.60;;;2.33;;
9496;SDS011;4786;51.270;4.456;2023-01-09T15:08:19;7.90;;;2.37;;
9496;SDS011;4786;51.270;4.456;2023-01-09T15:10:48;8.03;;;2.63;;
9496;SDS011;4786;51.270;4.456;2023-01-09T15:13:18;10.97;;;2.70;;
9496;SDS011;4786;51.270;4.456;2023-01-09T15:16:06;9.10;;;3.13;;
9496;SDS011;4786;51.270;4.456;2023-01-09T15:18:49;8.43;;;2.37;;
9496;SDS011;4786;51.270;4.456;2023-01-09T15:21:20;6.03;;;2.10;;
9496;SDS011;4786;51.270;4.456;2023-01-09T15:23:49;6.17;;;2.20;;
9496;SDS011;4786;51.270;4.456;2023-01-09T15:28:52;7.07;;;1.77;;
9496;SDS011;4786;51.270;4.456;2023-01-09T15:31:24;9.27;;;1.90;;
9496;SDS011;4786;51.270;4.456;2023-01-09T15:33:51;9.53;;;2.23;;
9496;SDS011;4786;51.270;4.456;2023-01-09T15:36:18;8.20;;;2.50;;
9496;SDS011;4786;51.270;4.456;2023-01-09T15:38:49;4.87;;;2.00;;
9496;SDS011;4786;51.270;4.456;2023-01-09T15:41:26;6.50;;;2.00;;
9496;SDS011;4786;51.270;4.456;2023-01-09T15:44:22;7.37;;;2.43;;
9496;SDS011;4786;51.270;4.456;2023-01-09T15:46:50;13.17;;;3.03;;
9496;SDS011;4786;51.270;4.456;2023-01-09T15:49:20;7.53;;;2.40;;
9496;SDS011;4786;51.270;4.456;2023-01-09T15:51:47;6.27;;;2.60;;
9496;SDS011;4786;51.270;4.456;2023-01-09T15:54:15;7.03;;;2.67;;
9496;SDS011;4786;51.270;4.456;2023-01-09T15:56:45;6.67;;;2.53;;
9496;SDS011;4786;51.270;4.456;2023-01-09T15:59:24;6.00;;;2.30;;
9496;SDS011;4786;51.270;4.456;2023-01-09T16:01:55;6.60;;;2.30;;
9496;SDS011;4786;51.270;4.456;2023-01-09T16:04:44;9.43;;;2.60;;
9496;SDS011;4786;51.270;4.456;2023-01-09T16:07:15;5.87;;;2.40;;
9496;SDS011;4786;51.270;4.456;2023-01-09T16:09:44;9.70;;;2.47;;
9496;SDS011;4786;51.270;4.456;2023-01-09T16:12:17;6.80;;;2.23;;
9496;SDS011;4786;51.270;4.456;2023-01-09T16:14:48;6.73;;;2.40;;
9496;SDS011;4786;51.270;4.456;2023-01-09T16:17:20;7.97;;;2.57;;
9496;SDS011;4786;51.270;4.456;2023-01-09T16:19:57;7.57;;;2.40;;
9496;SDS011;4786;51.270;4.456;2023-01-09T16:22:49;7.70;;;2.90;;
9496;SDS011;4786;51.270;4.456;2023-01-09T16:33:28;9.33;;;3.10;;
9496;SDS011;4786;51.270;4.456;2023-01-09T16:35:55;9.43;;;3.03;;
9496;SDS011;4786;51.270;4.456;2023-01-09T16:38:22;6.27;;;2.70;;
9496;SDS011;4786;51.270;4.456;2023-01-09T16:43:47;10.17;;;3.03;;
9496;SDS011;4786;51.270;4.456;2023-01-09T16:46:17;8.13;;;3.00;;
9496;SDS011;4786;51.270;4.456;2023-01-09T16:48:45;6.50;;;2.70;;
9496;SDS011;4786;51.270;4.456;2023-01-09T16:51:19;7.47;;;2.87;;
9496;SDS011;4786;51.270;4.456;2023-01-09T16:53:46;5.70;;;2.20;;
9496;SDS011;4786;51.270;4.456;2023-01-09T16:58:41;6.23;;;2.33;;
9496;SDS011;4786;51.270;4.456;2023-01-09T17:01:08;5.93;;;2.27;;
9496;SDS011;4786;51.270;4.456;2023-01-09T17:03:37;6.80;;;2.40;;
9496;SDS011;4786;51.270;4.456;2023-01-09T17:06:04;6.17;;;2.30;;
9496;SDS011;4786;51.270;4.456;2023-01-09T17:08:31;4.37;;;2.30;;
9496;SDS011;4786;51.270;4.456;2023-01-09T17:11:02;7.70;;;2.53;;
9496;SDS011;4786;51.270;4.456;2023-01-09T17:13:28;8.00;;;3.23;;
9496;SDS011;4786;51.270;4.456;2023-01-09T17:15:54;9.97;;;3.27;;
9496;SDS011;4786;51.270;4.456;2023-01-09T17:18:23;11.27;;;3.00;;
9496;SDS011;4786;51.270;4.456;2023-01-09T17:20:55;6.27;;;3.03;;
9496;SDS011;4786;51.270;4.456;2023-01-09T17:23:22;8.50;;;3.00;;
9496;SDS011;4786;51.270;4.456;2023-01-09T17:25:55;10.00;;;2.90;;
9496;SDS011;4786;51.270;4.456;2023-01-09T17:28:42;8.57;;;3.17;;
9496;SDS011;4786;51.270;4.456;2023-01-09T17:31:11;6.30;;;2.73;;
9496;SDS011;4786;51.270;4.456;2023-01-09T17:33:37;5.93;;;3.10;;
9496;SDS011;4786;51.270;4.456;2023-01-09T17:36:16;6.70;;;3.10;;
9496;SDS011;4786;51.270;4.456;2023-01-09T17:38:46;10.90;;;3.87;;
9496;SDS011;4786;51.270;4.456;2023-01-09T17:41:20;8.40;;;4.10;;
9496;SDS011;4786;51.270;4.456;2023-01-09T17:43:47;8.43;;;4.33;;
9496;SDS011;4786;51.270;4.456;2023-01-09T17:46:14;11.77;;;4.40;;
9496;SDS011;4786;51.270;4.456;2023-01-09T17:48:41;7.10;;;3.13;;
9496;SDS011;4786;51.270;4.456;2023-01-09T17:51:08;8.23;;;2.77;;
9496;SDS011;4786;51.270;4.456;2023-01-09T17:53:35;7.90;;;3.40;;
9496;SDS011;4786;51.270;4.456;2023-01-09T17:56:00;10.37;;;2.93;;
9496;SDS011;4786;51.270;4.456;2023-01-09T17:58:27;4.67;;;2.70;;
9496;SDS011;4786;51.270;4.456;2023-01-09T18:00:54;11.70;;;3.53;;
9496;SDS011;4786;51.270;4.456;2023-01-09T18:03:22;7.90;;;3.30;;
9496;SDS011;4786;51.270;4.456;2023-01-09T18:05:49;6.77;;;3.40;;
9496;SDS011;4786;51.270;4.456;2023-01-09T18:08:16;7.97;;;2.90;;
9496;SDS011;4786;51.270;4.456;2023-01-09T18:10:41;8.27;;;3.20;;